Time;durP1;ratioP1;P1;durP2;ratioP2;P2;SDS_P1;SDS_P2;PMS_P1;PMS_P2;Temp;Humidity;BMP_temperature;BMP_pressure;BME280_temperature;BME280_humidity;BME280_pressure;Samples;Min_cycle;Max_cycle;Signal;HPM_P1;HPM_P2
2023/03/29 00:02:00;;;;;;;1.40;0.10;;;8.60;54.50;;;;;;4974719;28;92621;-71
2023/03/29 00:04:26;;;;;;;0.70;0.03;;;8.60;53.90;;;;;;4975679;28;92136;-71
2023/03/29 00:06:52;;;;;;;0.43;0.08;;;8.50;54.50;;;;;;4975417;28;92917;-71
2023/03/29 00:09:18;;;;;;;0.57;0.10;;;8.50;54.10;;;;;;4976187;28;93083;-70
2023/03/29 00:11:44;;;;;;;1.33;0.10;;;8.50;54.20;;;;;;4970274;28;95045;-70
2023/03/29 00:14:10;;;;;;;0.40;0.00;;;8.40;55.70;;;;;;4968452;28;93739;-73
2023/03/29 00:16:36;;;;;;;1.08;0.00;;;8.40;55.50;;;;;;4970350;28;93708;-74
2023/03/29 00:19:02;;;;;;;0.30;0.00;;;8.40;55.10;;;;;;4963552;28;92593;-72
2023/03/29 00:21:28;;;;;;;1.63;0.10;;;8.40;55.60;;;;;;4970351;28;93331;-72
2023/03/29 00:23:55;;;;;;;0.70;0.10;;;8.40;56.80;;;;;;4983811;28;93540;-72
2023/03/29 00:26:21;;;;;;;4.18;0.10;;;8.40;55.30;;;;;;4994968;28;93706;-71
2023/03/29 00:28:47;;;;;;;0.43;0.05;;;8.40;57.90;;;;;;4985347;28;92359;-71
2023/03/29 00:31:15;;;;;;;0.88;0.10;;;8.40;56.60;;;;;;4994894;28;92739;-73
2023/03/29 00:33:42;;;;;;;2.78;0.05;;;8.40;56.30;;;;;;4973239;28;93027;-73
2023/03/29 00:36:09;;;;;;;2.83;0.08;;;8.40;58.00;;;;;;4975955;28;92405;-72
2023/03/29 00:38:36;;;;;;;0.47;0.03;;;8.40;57.00;;;;;;4975890;28;92614;-73
2023/03/29 00:41:02;;;;;;;0.32;0.00;;;8.50;56.90;;;;;;4974173;28;94153;-71
2023/03/29 00:43:28;;;;;;;1.67;0.10;;;8.50;56.80;;;;;;4981864;28;93770;-71
2023/03/29 00:45:54;;;;;;;0.35;0.00;;;8.50;57.60;;;;;;4977023;28;92585;-71
2023/03/29 00:48:23;;;;;;;1.33;0.00;;;8.50;56.80;;;;;;4978737;28;92432;-70
2023/03/29 00:51:02;;;;;;;0.82;0.03;;;8.60;57.30;;;;;;4981028;28;93457;-72
2023/03/29 00:53:32;;;;;;;1.08;0.08;;;8.60;57.10;;;;;;4969767;28;92884;-70
2023/03/29 00:56:05;;;;;;;0.40;0.10;;;8.60;58.40;;;;;;4974211;28;92375;-71
2023/03/29 00:58:43;;;;;;;0.30;0.00;;;8.70;56.70;;;;;;4974974;28;91647;-73
2023/03/29 01:01:18;;;;;;;2.15;0.10;;;8.60;55.80;;;;;;4984406;28;92710;-72
2023/03/29 01:04:02;;;;;;;0.20;0.00;;;8.60;58.30;;;;;;4970395;28;92531;-72
2023/03/29 01:06:33;;;;;;;0.32;0.00;;;8.60;58.30;;;;;;4974411;28;93266;-71
2023/03/29 01:09:03;;;;;;;0.75;0.00;;;8.60;58.00;;;;;;4974198;28;92548;-70
2023/03/29 01:11:52;;;;;;;0.30;0.00;;;8.60;57.10;;;;;;4955630;28;93188;-72
2023/03/29 01:14:36;;;;;;;1.70;0.00;;;8.50;59.10;;;;;;4963288;28;93156;-73
2023/03/29 01:17:03;;;;;;;2.88;0.00;;;8.50;61.00;;;;;;4977913;28;92122;-72
2023/03/29 01:19:35;;;;;;;0.57;0.10;;;8.50;62.80;;;;;;4966635;28;93785;-72
2023/03/29 01:22:43;;;;;;;1.35;0.00;;;8.50;60.80;;;;;;4982618;28;93138;-71
2023/03/29 01:25:33;;;;;;;0.17;0.00;;;8.50;60.70;;;;;;4991087;28;93021;-71
2023/03/29 01:28:08;;;;;;;0.85;0.10;;;8.50;60.20;;;;;;4978623;28;92611;-70
2023/03/29 01:30:47;;;;;;;0.40;0.00;;;8.50;63.60;;;;;;4973963;28;92541;-72
2023/03/29 01:33:22;;;;;;;1.92;0.10;;;8.50;62.40;;;;;;4973469;28;94064;-71
2023/03/29 01:36:03;;;;;;;0.60;0.10;;;8.60;63.00;;;;;;4977277;28;93251;-72
2023/03/29 01:38:33;;;;;;;0.65;0.10;;;8.50;65.40;;;;;;4977760;28;92681;-72
2023/03/29 01:41:02;;;;;;;0.75;0.10;;;8.50;66.10;;;;;;4976264;28;92331;-73
2023/03/29 01:43:55;;;;;;;0.93;0.00;;;8.50;71.50;;;;;;4975142;28;93635;-72
2023/03/29 01:46:44;;;;;;;1.73;0.00;;;8.50;69.20;;;;;;4963008;28;92428;-73
2023/03/29 01:49:21;;;;;;;0.40;0.00;;;8.30;70.30;;;;;;4993961;28;92396;-71
2023/03/29 01:51:56;;;;;;;0.30;0.00;;;8.20;71.20;;;;;;4994595;28;91435;-73
2023/03/29 01:54:32;;;;;;;0.20;0.00;;;8.10;70.50;;;;;;4996740;28;92636;-69
2023/03/29 01:56:59;;;;;;;0.30;0.00;;;8.00;72.30;;;;;;4982593;28;92968;-73
2023/03/29 01:59:32;;;;;;;0.28;0.00;;;8.00;72.90;;;;;;4983253;28;93680;-72
2023/03/29 02:02:01;;;;;;;0.20;0.00;;;7.90;73.70;;;;;;4981036;28;92463;-71
2023/03/29 02:04:33;;;;;;;2.22;0.00;;;8.00;72.30;;;;;;4981912;28;93053;-74
2023/03/29 02:07:01;;;;;;;0.60;0.00;;;7.90;73.30;;;;;;4974204;28;92746;-70
2023/03/29 02:09:29;;;;;;;2.00;0.03;;;8.00;73.20;;;;;;4996935;28;93556;-72
2023/03/29 02:11:59;;;;;;;3.75;0.00;;;8.00;73.50;;;;;;4996145;28;92108;-73
2023/03/29 02:14:25;;;;;;;1.50;0.10;;;8.00;74.00;;;;;;4968066;28;93633;-69
2023/03/29 02:16:51;;;;;;;1.05;0.00;;;8.00;73.40;;;;;;4974850;28;92850;-68
2023/03/29 02:19:18;;;;;;;3.38;0.00;;;8.10;72.50;;;;;;4970318;28;92481;-71
2023/03/29 02:21:52;;;;;;;0.52;0.00;;;8.20;72.30;;;;;;4972790;28;92432;-72
2023/03/29 02:24:20;;;;;;;0.65;0.00;;;8.20;72.00;;;;;;4976354;28;93451;-70
2023/03/29 02:26:47;;;;;;;0.73;0.00;;;8.20;71.50;;;;;;4976468;28;93348;-70
2023/03/29 02:29:13;;;;;;;0.55;0.03;;;8.20;71.60;;;;;;4967149;28;92568;-71
2023/03/29 02:32:03;;;;;;;0.47;0.00;;;8.20;73.00;;;;;;4976883;28;92338;-71
2023/03/29 02:34:37;;;;;;;0.63;0.00;;;8.10;71.80;;;;;;4976443;28;93537;-71
2023/03/29 02:37:09;;;;;;;0.22;0.00;;;8.10;72.80;;;;;;4969015;28;92885;-70
2023/03/29 02:39:35;;;;;;;0.30;0.00;;;8.00;72.40;;;;;;4971727;28;92364;-71
2023/03/29 02:42:02;;;;;;;0.45;0.00;;;8.10;73.00;;;;;;4987896;28;91563;-73
2023/03/29 02:44:30;;;;;;;0.32;0.00;;;8.00;73.10;;;;;;4990493;28;92762;-71
2023/03/29 02:47:02;;;;;;;1.52;0.10;;;7.90;73.30;;;;;;4986256;28;93472;-71
2023/03/29 02:49:28;;;;;;;2.50;0.00;;;7.90;73.90;;;;;;4987365;28;93505;-72
2023/03/29 02:51:59;;;;;;;0.50;0.00;;;7.90;75.20;;;;;;4960915;28;92119;-72
2023/03/29 02:54:28;;;;;;;1.58;0.00;;;7.90;73.80;;;;;;4977565;28;93141;-69
2023/03/29 02:56:59;;;;;;;0.57;0.00;;;7.90;73.80;;;;;;4969265;28;93426;-71
2023/03/29 02:59:26;;;;;;;1.52;0.00;;;7.90;74.10;;;;;;4996287;28;92180;-72
2023/03/29 03:01:52;;;;;;;0.73;0.00;;;7.90;74.50;;;;;;4996615;28;92303;-72
2023/03/29 03:04:19;;;;;;;1.75;0.10;;;7.90;74.10;;;;;;4978801;28;93125;-71
2023/03/29 03:06:45;;;;;;;0.30;0.00;;;8.00;74.50;;;;;;4979612;28;93335;-71
2023/03/29 03:09:11;;;;;;;1.20;0.00;;;8.00;74.50;;;;;;4968616;28;93002;-72
2023/03/29 03:11:37;;;;;;;0.10;0.00;;;8.10;74.10;;;;;;4972878;28;92628;-69
2023/03/29 03:14:03;;;;;;;0.68;0.03;;;8.10;75.30;;;;;;4982845;28;94342;-71
2023/03/29 03:16:28;;;;;;;3.35;0.00;;;8.10;76.10;;;;;;4983213;28;93811;-72
2023/03/29 03:18:54;;;;;;;1.90;0.00;;;8.10;73.80;;;;;;4968448;28;92357;-69
2023/03/29 03:21:21;;;;;;;2.15;0.00;;;8.20;75.00;;;;;;4976272;28;92466;-72
2023/03/29 03:23:47;;;;;;;2.53;0.00;;;8.20;75.50;;;;;;4975132;28;92493;-73
2023/03/29 03:26:14;;;;;;;2.78;0.00;;;8.20;74.40;;;;;;4986856;28;92995;-70
2023/03/29 03:28:39;;;;;;;3.00;0.05;;;8.20;74.70;;;;;;4980432;28;92397;-71
2023/03/29 03:31:06;;;;;;;0.80;0.00;;;8.10;75.40;;;;;;4970887;28;91893;-72
2023/03/29 03:33:32;;;;;;;0.38;0.08;;;8.10;75.60;;;;;;4975596;28;93121;-72
2023/03/29 03:36:05;;;;;;;0.30;0.00;;;8.00;75.70;;;;;;4981029;28;93472;-72
2023/03/29 03:38:31;;;;;;;1.58;0.00;;;8.10;75.40;;;;;;4994678;28;93380;-72
2023/03/29 03:40:59;;;;;;;1.13;0.00;;;8.10;76.10;;;;;;4991669;28;92173;-69
2023/03/29 03:43:25;;;;;;;0.43;0.03;;;8.20;73.80;;;;;;4970865;28;93170;-73
2023/03/29 03:45:50;;;;;;;0.40;0.00;;;8.10;75.60;;;;;;4972133;28;92626;-71
2023/03/29 03:48:17;;;;;;;3.13;0.00;;;8.10;75.40;;;;;;4976960;28;92169;-70
2023/03/29 03:50:51;;;;;;;1.83;0.20;;;8.20;74.60;;;;;;4974424;28;92395;-73
2023/03/29 03:53:17;;;;;;;0.70;0.00;;;8.10;74.50;;;;;;4962689;28;93115;-72
2023/03/29 03:55:50;;;;;;;0.28;0.00;;;8.10;75.60;;;;;;4975784;28;92846;-73
2023/03/29 03:58:16;;;;;;;0.38;0.00;;;8.10;74.80;;;;;;4972884;28;93573;-71
2023/03/29 04:00:43;;;;;;;1.45;0.10;;;8.20;75.90;;;;;;4976789;28;92141;-70
2023/03/29 04:03:09;;;;;;;0.50;0.00;;;8.20;73.90;;;;;;4965094;28;93928;-72
2023/03/29 04:05:39;;;;;;;0.30;0.00;;;8.20;75.30;;;;;;4974910;28;93985;-70
2023/03/29 04:08:06;;;;;;;0.95;0.00;;;8.20;74.70;;;;;;4983405;28;92575;-68
2023/03/29 04:10:33;;;;;;;0.93;0.00;;;8.20;74.50;;;;;;4995434;28;92372;-71
2023/03/29 04:13:03;;;;;;;0.30;0.00;;;8.20;74.50;;;;;;4979652;28;93503;-70
2023/03/29 04:15:30;;;;;;;1.27;0.00;;;8.30;74.60;;;;;;4978747;28;93213;-69
2023/03/29 04:17:56;;;;;;;0.50;0.08;;;8.30;73.30;;;;;;4975046;28;92628;-73
2023/03/29 04:20:23;;;;;;;0.63;0.00;;;8.30;74.40;;;;;;4977669;28;91709;-72
2023/03/29 04:22:49;;;;;;;1.15;0.00;;;8.40;73.10;;;;;;4987586;28;93127;-74
2023/03/29 04:25:15;;;;;;;1.35;0.10;;;8.30;73.70;;;;;;4981246;28;92898;-70
2023/03/29 04:27:41;;;;;;;1.75;0.10;;;8.40;74.20;;;;;;4979977;28;95171;-73
2023/03/29 04:30:08;;;;;;;0.52;0.00;;;8.50;73.90;;;;;;4972944;28;92466;-72
2023/03/29 04:32:34;;;;;;;0.35;0.00;;;8.50;73.70;;;;;;4978043;28;92633;-71
2023/03/29 04:35:01;;;;;;;0.60;0.00;;;8.50;73.40;;;;;;4977902;28;92918;-72
2023/03/29 04:37:28;;;;;;;0.90;0.50;;;8.50;73.10;;;;;;4975414;28;92314;-71
2023/03/29 04:39:54;;;;;;;0.70;0.00;;;8.60;73.80;;;;;;4974200;28;92570;-71
2023/03/29 04:42:20;;;;;;;1.90;0.05;;;8.60;74.00;;;;;;4964761;28;94116;-73
2023/03/29 04:44:46;;;;;;;0.77;0.00;;;8.50;74.20;;;;;;4964792;28;92931;-71
2023/03/29 04:47:12;;;;;;;1.00;0.00;;;8.50;74.10;;;;;;4963131;28;92559;-72
2023/03/29 04:49:38;;;;;;;0.80;0.00;;;8.50;73.40;;;;;;4973689;28;93637;-71
2023/03/29 04:52:04;;;;;;;1.25;0.10;;;8.50;73.30;;;;;;4958840;28;94239;-72
2023/03/29 04:54:30;;;;;;;1.23;0.10;;;8.60;73.50;;;;;;4952928;28;96669;-72
2023/03/29 04:56:56;;;;;;;1.00;0.10;;;8.60;73.70;;;;;;4956493;28;94176;-72
2023/03/29 04:59:22;;;;;;;3.80;0.82;;;8.60;73.20;;;;;;4959507;28;94806;-74
2023/03/29 05:01:48;;;;;;;3.75;0.32;;;8.60;74.20;;;;;;4961292;28;93906;-72
2023/03/29 05:04:13;;;;;;;1.38;0.10;;;8.70;71.90;;;;;;4960765;28;93252;-71
2023/03/29 05:06:40;;;;;;;1.30;0.20;;;8.70;72.20;;;;;;4963650;28;92558;-71
2023/03/29 05:09:07;;;;;;;2.47;0.22;;;8.70;72.70;;;;;;4963388;28;91949;-71
2023/03/29 05:11:33;;;;;;;2.88;0.10;;;8.70;71.70;;;;;;4960065;28;94556;-72
2023/03/29 05:14:02;;;;;;;1.80;0.00;;;8.80;72.40;;;;;;4973204;28;92838;-71
2023/03/29 05:16:30;;;;;;;0.50;0.00;;;8.80;70.50;;;;;;4981390;28;93444;-71
2023/03/29 05:18:57;;;;;;;1.80;0.10;;;8.80;70.20;;;;;;4966737;28;92571;-71
2023/03/29 05:21:25;;;;;;;1.20;0.10;;;8.70;70.90;;;;;;4959929;28;94699;-73
2023/03/29 05:23:52;;;;;;;0.40;0.00;;;8.60;71.70;;;;;;4964488;28;94269;-72
2023/03/29 05:26:17;;;;;;;3.17;0.00;;;8.50;72.00;;;;;;4963541;28;93962;-70
2023/03/29 05:28:43;;;;;;;3.22;0.10;;;8.40;75.10;;;;;;4960527;28;92668;-72
2023/03/29 05:31:09;;;;;;;3.08;0.10;;;8.30;74.40;;;;;;4976668;28;93631;-72
2023/03/29 05:33:35;;;;;;;1.48;0.10;;;8.20;75.10;;;;;;4966555;28;92210;-72
2023/03/29 05:36:03;;;;;;;1.75;0.08;;;8.30;75.70;;;;;;4973556;28;92423;-72
2023/03/29 05:38:29;;;;;;;0.20;0.00;;;8.30;74.90;;;;;;4973737;28;93826;-71
2023/03/29 05:40:56;;;;;;;1.10;0.00;;;8.30;73.90;;;;;;4963037;28;93955;-71
2023/03/29 05:43:22;;;;;;;0.80;0.05;;;8.30;74.60;;;;;;4961660;28;94530;-71
2023/03/29 05:45:47;;;;;;;0.20;0.00;;;8.30;74.60;;;;;;4969187;28;94093;-71
2023/03/29 05:48:13;;;;;;;3.65;0.00;;;8.30;74.60;;;;;;4973424;28;92772;-71
2023/03/29 05:50:39;;;;;;;0.40;0.00;;;8.40;74.50;;;;;;4970499;28;92848;-71
2023/03/29 05:53:04;;;;;;;0.82;0.05;;;8.50;74.10;;;;;;4967234;28;93675;-71
2023/03/29 05:55:30;;;;;;;2.25;0.03;;;8.60;74.10;;;;;;4984245;28;92385;-71
2023/03/29 05:57:56;;;;;;;1.02;0.00;;;8.50;74.20;;;;;;4973017;28;93461;-71
2023/03/29 06:00:24;;;;;;;1.05;0.00;;;8.70;73.50;;;;;;4961714;28;93884;-72
2023/03/29 06:02:54;;;;;;;1.13;0.00;;;8.70;73.60;;;;;;4979685;28;93063;-71
2023/03/29 06:05:20;;;;;;;2.78;0.00;;;8.80;73.50;;;;;;4981218;28;93341;-72
2023/03/29 06:07:47;;;;;;;2.30;0.03;;;8.90;75.50;;;;;;4977697;28;92525;-72
2023/03/29 06:10:14;;;;;;;1.98;0.05;;;9.00;73.70;;;;;;4968201;28;93034;-73
2023/03/29 06:12:40;;;;;;;0.50;0.00;;;9.10;74.10;;;;;;4966297;28;92876;-72
2023/03/29 06:15:07;;;;;;;1.08;0.30;;;9.20;72.60;;;;;;4967235;28;92805;-72
2023/03/29 06:17:33;;;;;;;1.33;0.20;;;9.30;71.40;;;;;;4968541;28;92216;-69
2023/03/29 06:19:59;;;;;;;0.80;0.10;;;9.30;71.50;;;;;;4974834;28;92796;-70
2023/03/29 06:22:26;;;;;;;2.95;0.13;;;9.30;71.40;;;;;;4969130;28;92949;-72
2023/03/29 06:24:52;;;;;;;2.42;0.45;;;9.40;70.40;;;;;;4971899;28;92413;-72
2023/03/29 06:27:18;;;;;;;1.38;0.20;;;9.40;70.60;;;;;;4973213;28;92597;-70
2023/03/29 06:29:44;;;;;;;0.65;0.10;;;9.50;71.00;;;;;;4974253;28;93590;-69
2023/03/29 06:32:10;;;;;;;1.85;0.20;;;9.50;68.40;;;;;;4970958;28;93829;-72
2023/03/29 06:34:36;;;;;;;2.28;0.90;;;9.50;69.60;;;;;;4965355;28;94227;-72
2023/03/29 06:37:02;;;;;;;2.83;0.60;;;9.50;70.50;;;;;;4964602;28;92508;-72
2023/03/29 06:39:28;;;;;;;2.08;0.22;;;9.30;71.50;;;;;;4963254;28;93295;-71
2023/03/29 06:41:54;;;;;;;1.40;0.32;;;9.30;71.40;;;;;;4975389;28;92838;-72
2023/03/29 06:44:20;;;;;;;0.90;0.10;;;9.30;72.30;;;;;;4989477;28;92576;-71
2023/03/29 06:46:46;;;;;;;2.78;0.40;;;9.30;72.80;;;;;;4976353;28;91645;-72
2023/03/29 06:49:12;;;;;;;3.50;0.68;;;9.30;73.50;;;;;;4975768;28;93206;-69
2023/03/29 06:51:39;;;;;;;5.95;1.30;;;9.40;73.50;;;;;;4976237;28;93377;-72
2023/03/29 06:54:04;;;;;;;3.30;0.95;;;9.50;74.00;;;;;;4965379;28;93368;-69
2023/03/29 06:56:31;;;;;;;2.30;0.30;;;9.50;74.00;;;;;;4976009;28;92625;-69
2023/03/29 06:58:56;;;;;;;0.93;0.10;;;9.60;73.80;;;;;;4978600;28;93315;-69
2023/03/29 07:01:23;;;;;;;1.30;0.13;;;9.60;74.50;;;;;;4996057;28;92658;-73
2023/03/29 07:03:48;;;;;;;1.25;0.10;;;9.70;73.60;;;;;;4973822;28;92278;-69
2023/03/29 07:06:16;;;;;;;3.78;0.40;;;9.60;73.40;;;;;;4966790;28;92481;-71
2023/03/29 07:08:43;;;;;;;2.25;0.20;;;9.60;73.10;;;;;;4960271;28;92741;-70
2023/03/29 07:11:14;;;;;;;2.25;0.22;;;9.60;73.70;;;;;;4965038;28;93079;-70
2023/03/29 07:13:41;;;;;;;1.08;0.13;;;9.70;72.60;;;;;;4964442;28;94159;-70
2023/03/29 07:16:11;;;;;;;1.23;0.10;;;9.80;74.30;;;;;;4983071;28;92633;-72
2023/03/29 07:18:38;;;;;;;1.15;0.10;;;9.80;73.20;;;;;;4968794;28;93822;-71
2023/03/29 07:21:05;;;;;;;1.42;0.10;;;9.90;73.20;;;;;;4974489;28;93755;-70
2023/03/29 07:23:30;;;;;;;0.85;0.10;;;9.90;72.90;;;;;;4976053;28;92444;-71
2023/03/29 07:25:56;;;;;;;13.57;3.75;;;9.90;74.00;;;;;;4972698;28;92534;-72
2023/03/29 07:28:21;;;;;;;4.03;0.60;;;9.90;73.10;;;;;;4974131;28;92702;-72
2023/03/29 07:30:48;;;;;;;3.33;0.70;;;9.90;73.40;;;;;;4963735;28;93309;-70
2023/03/29 07:33:14;;;;;;;5.40;0.50;;;10.00;73.60;;;;;;4966031;28;92037;-70
2023/03/29 07:35:42;;;;;;;2.42;0.10;;;9.90;72.80;;;;;;4974285;28;91539;-69
2023/03/29 07:38:08;;;;;;;0.90;0.10;;;10.00;73.70;;;;;;4964370;28;93802;-70
2023/03/29 07:40:34;;;;;;;2.42;0.20;;;10.00;74.20;;;;;;4966726;28;92259;-70
2023/03/29 07:43:06;;;;;;;2.45;0.10;;;10.10;72.80;;;;;;4960431;28;95236;-71
2023/03/29 07:45:32;;;;;;;1.98;0.10;;;10.20;73.00;;;;;;4966419;28;92399;-71
2023/03/29 07:47:58;;;;;;;1.38;0.05;;;10.20;72.50;;;;;;4966725;28;92422;-70
2023/03/29 07:50:25;;;;;;;1.20;0.10;;;10.30;72.10;;;;;;4964880;28;92622;-70
2023/03/29 07:52:50;;;;;;;2.17;0.00;;;10.40;72.50;;;;;;4967257;28;92611;-72
2023/03/29 07:55:16;;;;;;;1.40;0.10;;;10.60;71.30;;;;;;4964655;28;93234;-71
2023/03/29 07:57:43;;;;;;;2.35;0.10;;;10.70;71.50;;;;;;4957084;28;93295;-71
2023/03/29 08:00:19;;;;;;;0.95;0.20;;;10.70;70.00;;;;;;4957856;28;92253;-72
2023/03/29 08:02:46;;;;;;;;;;;10.80;69.90;;;;;;4962996;28;92835;-69
2023/03/29 08:05:13;;;;;;;0.95;0.03;;;10.80;70.20;;;;;;4973030;28;92400;-70
2023/03/29 08:07:43;;;;;;;2.70;0.13;;;10.90;69.80;;;;;;4975394;28;93684;-69
2023/03/29 08:10:20;;;;;;;2.47;0.10;;;10.90;70.60;;;;;;4971338;28;93968;-69
2023/03/29 08:12:47;;;;;;;4.97;0.30;;;10.90;70.40;;;;;;4969564;28;92191;-72
2023/03/29 08:15:14;;;;;;;0.95;0.10;;;11.00;69.70;;;;;;4961343;28;92777;-70
2023/03/29 08:17:40;;;;;;;1.70;0.00;;;11.00;69.50;;;;;;4968519;28;93435;-70
2023/03/29 08:20:09;;;;;;;2.92;0.43;;;11.10;69.70;;;;;;4967511;28;92643;-72
2023/03/29 08:22:35;;;;;;;3.42;0.52;;;11.20;69.30;;;;;;4965980;28;92139;-70
2023/03/29 08:25:04;;;;;;;4.68;0.00;;;11.20;68.70;;;;;;4964985;28;93687;-71
2023/03/29 08:27:31;;;;;;;1.17;0.10;;;11.20;68.00;;;;;;4966931;28;93138;-73
2023/03/29 08:29:56;;;;;;;0.50;0.00;;;11.20;68.00;;;;;;4970818;28;92698;-72
2023/03/29 08:32:22;;;;;;;0.95;0.00;;;11.20;68.40;;;;;;4978941;28;93135;-72
2023/03/29 08:34:48;;;;;;;1.55;0.10;;;11.20;67.40;;;;;;4970770;28;94053;-72
2023/03/29 08:37:13;;;;;;;2.63;0.10;;;11.20;68.80;;;;;;4975225;28;93728;-73
2023/03/29 08:39:39;;;;;;;0.43;0.03;;;11.30;67.60;;;;;;4976940;28;92713;-71
2023/03/29 08:42:32;;;;;;;1.38;0.08;;;11.30;69.00;;;;;;4979086;28;92390;-71
2023/03/29 08:44:57;;;;;;;3.13;0.30;;;11.20;68.70;;;;;;4969471;28;92491;-70
2023/03/29 08:47:23;;;;;;;2.78;0.20;;;11.30;68.30;;;;;;4970024;28;93236;-71
2023/03/29 08:49:53;;;;;;;1.27;0.20;;;11.20;67.70;;;;;;4966345;28;92433;-71
2023/03/29 08:52:37;;;;;;;1.52;0.00;;;11.20;69.30;;;;;;4984953;28;93423;-71
2023/03/29 08:55:11;;;;;;;1.15;0.10;;;11.30;68.20;;;;;;4962671;28;92320;-71
2023/03/29 08:57:45;;;;;;;0.50;0.00;;;11.30;68.00;;;;;;4973824;28;95292;-70
2023/03/29 09:00:17;;;;;;;0.88;0.00;;;11.40;69.00;;;;;;4971619;28;93977;-72
2023/03/29 09:02:44;;;;;;;1.05;0.10;;;11.50;67.90;;;;;;4968291;28;92529;-72
2023/03/29 09:05:32;;;;;;;1.17;0.10;;;11.60;66.80;;;;;;4965724;28;92504;-69
2023/03/29 09:07:58;;;;;;;2.35;0.00;;;11.80;67.10;;;;;;4963177;28;93184;-71
2023/03/29 09:10:38;;;;;;;1.85;0.10;;;11.80;65.30;;;;;;4969522;28;92508;-72
2023/03/29 09:13:21;;;;;;;0.68;0.10;;;11.80;66.40;;;;;;4965783;28;92629;-72
2023/03/29 09:15:59;;;;;;;3.50;0.13;;;11.90;66.20;;;;;;4966511;28;91637;-73
2023/03/29 09:19:00;;;;;;;2.42;0.05;;;11.90;66.00;;;;;;4973613;28;93655;-70
2023/03/29 09:21:45;;;;;;;3.80;0.13;;;12.00;66.50;;;;;;4969139;28;93286;-71
2023/03/29 09:24:36;;;;;;;2.65;0.10;;;12.30;65.20;;;;;;4971782;28;93481;-72
2023/03/29 09:27:27;;;;;;;2.05;0.10;;;12.50;66.00;;;;;;4974430;28;92128;-72
2023/03/29 09:30:06;;;;;;;3.83;0.10;;;12.70;64.70;;;;;;4977447;28;92620;-69
2023/03/29 09:32:41;;;;;;;2.88;0.20;;;12.70;64.80;;;;;;4976854;28;92422;-69
2023/03/29 09:35:23;;;;;;;3.70;0.10;;;12.70;64.20;;;;;;4972793;28;92272;-70
2023/03/29 09:37:52;;;;;;;3.90;0.75;;;12.70;65.40;;;;;;4966372;28;92593;-74
2023/03/29 09:41:00;;;;;;;7.60;1.35;;;12.60;65.10;;;;;;4962980;28;95078;-72
2023/03/29 09:43:39;;;;;;;0.82;0.20;;;12.60;63.80;;;;;;4970942;28;95867;-71
2023/03/29 09:46:14;;;;;;;2.85;0.28;;;12.70;64.80;;;;;;4969117;28;92441;-71
2023/03/29 09:48:42;;;;;;;2.38;0.13;;;12.90;63.40;;;;;;4975397;28;93060;-72
2023/03/29 09:51:09;;;;;;;3.65;0.32;;;13.00;64.30;;;;;;4965013;28;93602;-71
2023/03/29 09:53:35;;;;;;;5.95;1.20;;;13.10;63.30;;;;;;4970998;28;93990;-69
2023/03/29 09:56:01;;;;;;;8.25;1.65;;;13.30;63.40;;;;;;4966685;28;92823;-70
2023/03/29 09:58:30;;;;;;;1.75;0.22;;;13.50;63.20;;;;;;4965875;28;92760;-71
2023/03/29 10:01:04;;;;;;;5.63;1.20;;;13.70;62.60;;;;;;4973549;28;93224;-72
2023/03/29 10:03:33;;;;;;;1.20;0.10;;;14.20;60.70;;;;;;4993594;28;92478;-72
2023/03/29 10:06:01;;;;;;;2.17;0.10;;;14.40;61.00;;;;;;4993288;28;93934;-69
2023/03/29 10:08:28;;;;;;;1.27;0.10;;;14.70;61.00;;;;;;4972405;28;91409;-72
2023/03/29 10:10:57;;;;;;;3.22;0.20;;;14.90;59.10;;;;;;4968657;28;93120;-72
2023/03/29 10:13:29;;;;;;;1.02;0.10;;;14.90;58.80;;;;;;4963507;28;92903;-72
2023/03/29 10:16:02;;;;;;;2.22;0.25;;;14.70;60.20;;;;;;4970499;28;93613;-71
2023/03/29 10:18:30;;;;;;;2.08;0.10;;;14.80;58.50;;;;;;4975643;28;92525;-72
2023/03/29 10:21:02;;;;;;;1.08;0.10;;;14.90;58.50;;;;;;4963067;28;93216;-74
2023/03/29 10:23:33;;;;;;;2.50;0.15;;;14.90;58.40;;;;;;4955738;28;93985;-70
2023/03/29 10:26:03;;;;;;;0.93;0.10;;;14.80;59.20;;;;;;4965396;28;94714;-70
2023/03/29 10:28:31;;;;;;;4.78;0.38;;;14.80;58.80;;;;;;4966220;28;92449;-70
2023/03/29 10:30:59;;;;;;;4.53;0.20;;;14.80;58.90;;;;;;4963692;28;93565;-71
2023/03/29 10:33:32;;;;;;;2.00;0.30;;;14.70;58.30;;;;;;4964958;28;92686;-72
2023/03/29 10:36:00;;;;;;;4.95;0.10;;;14.70;58.80;;;;;;4973817;28;92408;-73
2023/03/29 10:38:28;;;;;;;8.65;0.35;;;14.60;60.40;;;;;;4967271;28;94270;-73
2023/03/29 10:41:02;;;;;;;3.60;0.10;;;14.50;59.80;;;;;;4975785;28;93935;-72
2023/03/29 10:43:36;;;;;;;3.10;0.10;;;14.30;59.60;;;;;;4960776;28;95271;-73
2023/03/29 10:46:32;;;;;;;2.78;0.10;;;14.30;60.00;;;;;;4966612;28;92479;-72
2023/03/29 10:49:03;;;;;;;2.88;0.10;;;14.20;60.00;;;;;;4957169;28;93703;-72
2023/03/29 10:51:29;;;;;;;4.00;0.10;;;14.30;60.20;;;;;;4947551;28;94117;-71
2023/03/29 10:53:58;;;;;;;2.42;0.20;;;14.30;60.80;;;;;;4968753;28;94384;-72
2023/03/29 10:56:37;;;;;;;7.78;0.10;;;14.40;61.10;;;;;;4973840;28;92429;-69
2023/03/29 10:59:07;;;;;;;3.42;0.15;;;14.20;59.80;;;;;;4984094;28;91849;-71
2023/03/29 11:01:55;;;;;;;2.42;0.10;;;14.30;60.50;;;;;;4963046;28;93630;-73
2023/03/29 11:04:38;;;;;;;3.45;0.10;;;14.20;61.60;;;;;;4970047;28;92382;-72
2023/03/29 11:07:23;;;;;;;2.75;0.10;;;14.30;61.50;;;;;;4961387;28;94607;-72
2023/03/29 11:10:35;;;;;;;4.22;0.10;;;14.30;61.90;;;;;;4972032;28;92373;-72
2023/03/29 11:13:16;;;;;;;3.70;0.10;;;14.40;62.50;;;;;;4967637;28;93138;-72
2023/03/29 11:16:01;;;;;;;1.00;0.10;;;14.40;61.00;;;;;;4973763;28;92821;-72
2023/03/29 11:18:48;;;;;;;2.45;0.10;;;14.60;61.60;;;;;;4979806;28;94134;-70
2023/03/29 11:21:27;;;;;;;1.60;0.20;;;14.80;59.90;;;;;;4963352;28;92091;-72
2023/03/29 11:24:33;;;;;;;2.38;0.60;;;15.20;60.50;;;;;;4971751;28;93484;-70
2023/03/29 11:27:17;;;;;;;3.80;0.10;;;15.50;59.10;;;;;;4978676;28;93002;-72
2023/03/29 11:29:59;;;;;;;2.15;0.10;;;15.50;59.50;;;;;;4989360;28;93129;-73
2023/03/29 11:32:47;;;;;;;3.35;0.20;;;15.40;58.70;;;;;;4971669;28;92411;-71
2023/03/29 11:35:55;;;;;;;3.47;0.10;;;15.50;59.50;;;;;;4969123;28;93634;-73
2023/03/29 11:38:42;;;;;;;1.15;0.10;;;15.70;59.60;;;;;;4960145;28;93208;-72
2023/03/29 11:41:34;;;;;;;6.85;0.10;;;15.70;59.40;;;;;;4966153;28;92420;-72
2023/03/29 11:44:14;;;;;;;3.45;0.10;;;15.70;59.70;;;;;;4971088;28;92909;-72
2023/03/29 11:46:53;;;;;;;1.33;0.20;;;15.50;58.40;;;;;;4975194;28;93332;-71
2023/03/29 11:49:31;;;;;;;1.98;0.10;;;15.50;59.40;;;;;;4973826;28;93452;-72
2023/03/29 11:52:24;;;;;;;4.80;0.17;;;15.40;60.00;;;;;;4974080;28;92372;-72
2023/03/29 11:55:02;;;;;;;2.88;0.20;;;15.50;58.80;;;;;;4973118;28;91720;-72
2023/03/29 11:57:42;;;;;;;1.42;0.10;;;15.40;58.80;;;;;;4972245;28;93423;-73
2023/03/29 12:00:26;;;;;;;2.95;0.10;;;15.30;59.90;;;;;;4969999;28;92607;-72
2023/03/29 12:03:10;;;;;;;7.75;0.40;;;15.10;61.10;;;;;;4974202;28;93371;-73
2023/03/29 12:05:45;;;;;;;2.25;0.15;;;15.10;61.30;;;;;;4964094;28;92743;-70
2023/03/29 12:08:17;;;;;;;2.00;0.20;;;15.40;61.10;;;;;;4970903;28;93027;-73
2023/03/29 12:10:50;;;;;;;2.45;0.10;;;15.50;60.50;;;;;;4969879;28;92970;-73
2023/03/29 12:13:24;;;;;;;2.75;0.25;;;15.50;60.90;;;;;;4967286;28;94611;-71
2023/03/29 12:15:56;;;;;;;3.10;0.10;;;15.50;60.00;;;;;;4956198;28;94578;-72
2023/03/29 12:18:40;;;;;;;1.73;0.10;;;15.50;60.60;;;;;;4967390;28;92650;-71
2023/03/29 12:21:13;;;;;;;1.98;0.10;;;15.70;60.90;;;;;;4974978;28;92635;-72
2023/03/29 12:23:40;;;;;;;2.75;0.30;;;15.50;60.20;;;;;;4971848;28;92574;-72
2023/03/29 12:26:26;;;;;;;2.67;0.10;;;15.40;61.70;;;;;;4978561;28;92566;-72
2023/03/29 12:29:14;;;;;;;2.88;0.10;;;15.10;62.50;;;;;;4972425;28;93612;-73
2023/03/29 12:32:12;;;;;;;3.38;0.28;;;15.00;62.80;;;;;;4966503;28;93857;-71
2023/03/29 12:34:56;;;;;;;6.20;0.20;;;15.00;63.00;;;;;;4971201;28;92731;-72
2023/03/29 12:37:59;;;;;;;2.25;0.30;;;14.90;62.90;;;;;;4973102;28;93878;-71
2023/03/29 12:40:34;;;;;;;11.85;0.30;;;15.00;62.80;;;;;;4963490;28;93195;-72
2023/03/29 12:43:04;;;;;;;2.00;0.10;;;15.00;63.00;;;;;;4972691;28;92894;-73
2023/03/29 12:45:38;;;;;;;3.60;0.20;;;15.00;63.10;;;;;;4985720;28;92403;-72
2023/03/29 12:48:05;;;;;;;2.95;0.10;;;15.00;62.40;;;;;;4982964;28;92368;-71
2023/03/29 12:50:48;;;;;;;7.18;0.15;;;14.90;61.90;;;;;;4989289;28;93134;-72
2023/03/29 12:53:31;;;;;;;5.13;0.30;;;15.00;64.20;;;;;;4978322;28;92681;-74
2023/03/29 12:56:07;;;;;;;6.57;0.10;;;14.90;63.50;;;;;;4975734;28;93350;-71
2023/03/29 12:58:38;;;;;;;2.58;0.20;;;14.80;64.90;;;;;;4985638;28;92772;-71
2023/03/29 13:01:25;;;;;;;8.02;0.28;;;14.60;66.20;;;;;;4967318;28;93225;-71
2023/03/29 13:03:54;;;;;;;3.78;0.30;;;14.60;65.60;;;;;;4973285;28;93354;-71
2023/03/29 13:06:46;;;;;;;5.00;0.20;;;14.60;66.60;;;;;;4965005;28;92540;-72
2023/03/29 13:09:22;;;;;;;6.32;0.20;;;14.70;64.40;;;;;;4970166;28;92389;-72
2023/03/29 13:11:55;;;;;;;3.80;0.10;;;15.00;64.70;;;;;;4983923;28;93777;-73
2023/03/29 13:14:26;;;;;;;6.65;0.20;;;15.20;63.70;;;;;;4972431;28;92892;-72
2023/03/29 13:16:52;;;;;;;5.45;0.20;;;15.50;63.90;;;;;;4965062;28;92584;-70